Time;durP1;ratioP1;P1;durP2;ratioP2;P2;SDS_P1;SDS_P2;PMS_P1;PMS_P2;Temp;Humidity;BMP_temperature;BMP_pressure;BME280_temperature;BME280_humidity;BME280_pressure;Samples;Min_cycle;Max_cycle;Signal;HPM_P1;HPM_P2
2023/07/21 00:00:00;;;;;;;;;;;;;;;;;;5067381;28;4602;-59
2023/07/21 00:02:26;;;;;;;;;;;;;;;;;;5069716;28;1268;-59
2023/07/21 00:04:51;;;;;;;;;;;;;;;;;;5068530;28;5034;-59
2023/07/21 00:07:16;;;;;;;;;;;;;;;;;;5068766;28;5808;-59
2023/07/21 00:09:42;;;;;;;;;;;;;;;;;;5068154;28;4923;-59
2023/07/21 00:12:08;;;;;;;;;;;;;;;;;;5068798;28;4858;-57
2023/07/21 00:14:33;;;;;;;;;;;;;;;;;;5068986;28;1227;-59
2023/07/21 00:16:58;;;;;;;;;;;;;;;;;;5068688;28;4790;-61
2023/07/21 00:19:24;;;;;;;;;;;;;;;;;;5065030;28;5091;-60
2023/07/21 00:21:49;;;;;;;;;;;;;;;;;;5068248;28;4879;-59
2023/07/21 00:24:14;;;;;;;;;;;;;;;;;;5067325;28;5011;-58
2023/07/21 00:26:40;;;;;;;;;;;;;;;;;;5068061;28;1159;-59
2023/07/21 00:29:06;;;;;;;;;;;;;;;;;;5065138;28;5054;-58
2023/07/21 00:31:31;;;;;;;;;;;;;;;;;;5067505;28;4912;-59
2023/07/21 00:33:57;;;;;;;;;;;;;;;;;;5062178;28;4847;-59
2023/07/21 00:36:22;;;;;;;;;;;;;;;;;;5068477;28;5896;-59
2023/07/21 00:38:48;;;;;;;;;;;;;;;;;;5068351;28;2298;-58
2023/07/21 00:41:13;;;;;;;;;;;;;;;;;;5068184;28;4399;-58
2023/07/21 00:43:39;;;;;;;;;;;;;;;;;;5068334;28;5050;-59
2023/07/21 00:46:04;;;;;;;;;;;;;;;;;;5067745;28;4630;-58
2023/07/21 00:48:29;;;;;;;;;;;;;;;;;;5067649;28;5218;-58
2023/07/21 00:50:54;;;;;;;;;;;;;;;;;;5068277;28;4875;-58
2023/07/21 00:53:20;;;;;;;;;;;;;;;;;;5066823;28;1375;-59
2023/07/21 00:55:47;;;;;;;;;;;;;;;;;;5067557;28;5014;-58
2023/07/21 00:58:12;;;;;;;;;;;;;;;;;;5067878;28;5121;-59
2023/07/21 01:00:38;;;;;;;;;;;;;;;;;;5063144;28;5117;-59
2023/07/21 01:03:04;;;;;;;;;;;;;;;;;;5066739;28;4896;-59
2023/07/21 01:05:31;;;;;;;;;;;;;;;;;;5068542;28;1138;-59
2023/07/21 01:07:57;;;;;;;;;;;;;;;;;;5065964;28;4725;-59
2023/07/21 01:10:23;;;;;;;;;;;;;;;;;;5065918;28;5018;-59
2023/07/21 01:12:48;;;;;;;;;;;;;;;;;;5066538;28;4962;-58
2023/07/21 01:15:13;;;;;;;;;;;;;;;;;;5065870;28;4937;-59
2023/07/21 01:17:39;;;;;;;;;;;;;;;;;;5068063;28;1289;-58
2023/07/21 01:20:04;;;;;;;;;;;;;;;;;;5059604;28;4582;-58
2023/07/21 01:22:32;;;;;;;;;;;;;;;;;;5067690;28;4829;-58
2023/07/21 01:25:02;;;;;;;;;;;;;;;;;;5064196;28;4950;-59
2023/07/21 01:27:27;;;;;;;;;;;;;;;;;;5065440;28;5122;-58
2023/07/21 01:29:56;;;;;;;;;;;;;;;;;;5066142;28;5202;-58
2023/07/21 01:32:25;;;;;;;;;;;;;;;;;;5064258;28;5062;-59
2023/07/21 01:34:50;;;;;;;;;;;;;;;;;;5067760;28;5119;-59
2023/07/21 01:37:16;;;;;;;;;;;;;;;;;;5066956;28;4542;-58
2023/07/21 01:39:41;;;;;;;;;;;;;;;;;;5067119;28;5141;-58
2023/07/21 01:42:06;;;;;;;;;;;;;;;;;;5065786;28;5057;-58
2023/07/21 01:44:32;;;;;;;;;;;;;;;;;;5065313;28;1101;-59
2023/07/21 01:46:57;;;;;;;;;;;;;;;;;;5067395;28;4809;-60
2023/07/21 01:49:22;;;;;;;;;;;;;;;;;;5070007;28;5100;-59
2023/07/21 01:51:48;;;;;;;;;;;;;;;;;;5067302;28;5260;-59
2023/07/21 01:54:16;;;;;;;;;;;;;;;;;;5060965;28;5097;-59
2023/07/21 01:56:42;;;;;;;;;;;;;;;;;;5066376;28;1267;-58
2023/07/21 01:59:08;;;;;;;;;;;;;;;;;;5065843;28;4646;-58
2023/07/21 02:01:33;;;;;;;;;;;;;;;;;;5065851;28;5092;-59
2023/07/21 02:03:58;;;;;;;;;;;;;;;;;;5072454;28;5195;-59
2023/07/21 02:06:23;;;;;;;;;;;;;;;;;;5066891;28;4432;-59
2023/07/21 02:08:49;;;;;;;;;;;;;;;;;;5064232;28;1104;-58
2023/07/21 02:11:14;;;;;;;;;;;;;;;;;;5046821;28;4858;-59
2023/07/21 02:13:39;;;;;;;;;;;;;;;;;;5061244;28;5055;-59
2023/07/21 02:16:05;;;;;;;;;;;;;;;;;;5069006;28;4943;-57
2023/07/21 02:18:32;;;;;;;;;;;;;;;;;;5069883;28;5000;-58
2023/07/21 02:21:00;;;;;;;;;;;;;;;;;;5074336;28;4459;-59
2023/07/21 02:23:26;;;;;;;;;;;;;;;;;;5074173;28;1141;-58
2023/07/21 02:25:51;;;;;;;;;;;;;;;;;;5068808;28;4672;-58
2023/07/21 02:28:16;;;;;;;;;;;;;;;;;;5070306;28;5092;-59
2023/07/21 02:30:41;;;;;;;;;;;;;;;;;;5076047;28;5164;-59
2023/07/21 02:33:07;;;;;;;;;;;;;;;;;;5070044;28;4939;-59
2023/07/21 02:35:32;;;;;;;;;;;;;;;;;;5071179;28;1159;-58
2023/07/21 02:38:00;;;;;;;;;;;;;;;;;;5070393;28;4423;-58
2023/07/21 02:40:26;;;;;;;;;;;;;;;;;;5070359;28;4694;-59
2023/07/21 02:42:51;;;;;;;;;;;;;;;;;;5070391;28;5017;-59
2023/07/21 02:45:16;;;;;;;;;;;;;;;;;;5070169;28;5017;-59
2023/07/21 02:47:41;;;;;;;;;;;;;;;;;;5070665;28;1100;-59
2023/07/21 02:50:08;;;;;;;;;;;;;;;;;;5063316;28;4830;-58
2023/07/21 02:52:34;;;;;;;;;;;;;;;;;;5070208;28;4928;-59
2023/07/21 02:54:59;;;;;;;;;;;;;;;;;;5069953;28;4502;-59
2023/07/21 02:57:24;;;;;;;;;;;;;;;;;;5070091;28;5099;-58
2023/07/21 02:59:50;;;;;;;;;;;;;;;;;;5069877;28;4954;-57
2023/07/21 03:02:17;;;;;;;;;;;;;;;;;;5070752;28;1352;-58
2023/07/21 03:04:43;;;;;;;;;;;;;;;;;;5069991;28;4417;-58
2023/07/21 03:07:08;;;;;;;;;;;;;;;;;;5070127;28;5005;-58
2023/07/21 03:09:33;;;;;;;;;;;;;;;;;;5070295;28;5057;-59
2023/07/21 03:11:59;;;;;;;;;;;;;;;;;;5069669;28;4575;-58
2023/07/21 03:14:25;;;;;;;;;;;;;;;;;;5068393;28;1152;-57
2023/07/21 03:16:50;;;;;;;;;;;;;;;;;;5069242;28;4914;-59
2023/07/21 03:19:16;;;;;;;;;;;;;;;;;;5074024;28;4459;-58
2023/07/21 03:21:42;;;;;;;;;;;;;;;;;;5067842;28;5040;-58
2023/07/21 03:24:08;;;;;;;;;;;;;;;;;;5067102;28;5070;-58
2023/07/21 03:26:34;;;;;;;;;;;;;;;;;;5068567;28;1109;-58
2023/07/21 03:28:59;;;;;;;;;;;;;;;;;;5069701;28;5016;-58
2023/07/21 03:31:24;;;;;;;;;;;;;;;;;;5067532;28;4919;-59
2023/07/21 03:33:49;;;;;;;;;;;;;;;;;;5066841;28;5110;-59
2023/07/21 03:36:15;;;;;;;;;;;;;;;;;;5069462;28;5217;-59
2023/07/21 03:38:41;;;;;;;;;;;;;;;;;;5069498;28;1913;-58
2023/07/21 03:41:07;;;;;;;;;;;;;;;;;;5068846;28;5010;-58
2023/07/21 03:43:32;;;;;;;;;;;;;;;;;;5069360;28;4442;-59
2023/07/21 03:46:02;;;;;;;;;;;;;;;;;;5067713;28;5140;-59
2023/07/21 03:48:27;;;;;;;;;;;;;;;;;;5069005;28;4941;-58
2023/07/21 03:50:57;;;;;;;;;;;;;;;;;;5065715;28;5393;-58
2023/07/21 03:53:23;;;;;;;;;;;;;;;;;;5069755;28;1250;-59
2023/07/21 03:55:48;;;;;;;;;;;;;;;;;;5071807;28;5036;-59
2023/07/21 03:58:13;;;;;;;;;;;;;;;;;;5069464;28;5032;-59
2023/07/21 04:00:42;;;;;;;;;;;;;;;;;;5064211;28;5355;-59
2023/07/21 04:03:07;;;;;;;;;;;;;;;;;;5068496;28;4445;-58
2023/07/21 04:05:32;;;;;;;;;;;;;;;;;;5069625;28;1100;-58
2023/07/21 04:07:57;;;;;;;;;;;;;;;;;;5050677;28;4425;-59
2023/07/21 04:10:23;;;;;;;;;;;;;;;;;;5068318;28;4962;-58
2023/07/21 04:12:48;;;;;;;;;;;;;;;;;;5068724;28;5067;-59
2023/07/21 04:15:13;;;;;;;;;;;;;;;;;;5074511;28;4980;-58
2023/07/21 04:17:39;;;;;;;;;;;;;;;;;;5069145;28;1412;-57
2023/07/21 04:20:05;;;;;;;;;;;;;;;;;;5064120;28;5207;-58
2023/07/21 04:22:30;;;;;;;;;;;;;;;;;;5069026;28;5633;-59
2023/07/21 04:24:56;;;;;;;;;;;;;;;;;;5066446;28;4997;-59
2023/07/21 04:27:21;;;;;;;;;;;;;;;;;;5068547;28;5098;-58
2023/07/21 04:29:46;;;;;;;;;;;;;;;;;;5068587;28;1118;-59
2023/07/21 04:32:13;;;;;;;;;;;;;;;;;;5067744;28;5021;-59
2023/07/21 04:34:39;;;;;;;;;;;;;;;;;;5066058;28;5027;-59
2023/07/21 04:37:04;;;;;;;;;;;;;;;;;;5067384;28;4946;-59
2023/07/21 04:39:29;;;;;;;;;;;;;;;;;;5064788;28;5107;-59
2023/07/21 04:41:55;;;;;;;;;;;;;;;;;;5067586;28;5454;-59
2023/07/21 04:44:20;;;;;;;;;;;;;;;;;;5061017;28;3195;-58
2023/07/21 04:46:46;;;;;;;;;;;;;;;;;;5064378;28;4474;-59
2023/07/21 04:49:13;;;;;;;;;;;;;;;;;;5065561;28;5089;-59
2023/07/21 04:51:38;;;;;;;;;;;;;;;;;;5060231;28;6087;-58
2023/07/21 04:54:03;;;;;;;;;;;;;;;;;;5067447;28;5055;-59
2023/07/21 04:56:29;;;;;;;;;;;;;;;;;;5064932;28;3225;-58
2023/07/21 04:58:54;;;;;;;;;;;;;;;;;;5064406;28;4461;-58
2023/07/21 05:01:19;;;;;;;;;;;;;;;;;;5066009;28;4593;-58
2023/07/21 05:03:45;;;;;;;;;;;;;;;;;;5058068;28;4702;-59
2023/07/21 05:06:10;;;;;;;;;;;;;;;;;;5066188;28;4854;-59
2023/07/21 05:08:35;;;;;;;;;;;;;;;;;;5051844;28;3177;-57
2023/07/21 05:11:00;;;;;;;;;;;;;;;;;;5059809;28;5029;-58
2023/07/21 05:13:26;;;;;;;;;;;;;;;;;;5063125;28;4562;-58
2023/07/21 05:15:51;;;;;;;;;;;;;;;;;;5066485;28;4874;-58
2023/07/21 05:18:16;;;;;;;;;;;;;;;;;;5067649;28;4972;-57
2023/07/21 05:20:41;;;;;;;;;;;;;;;;;;5071154;28;1937;-57
2023/07/21 05:23:07;;;;;;;;;;;;;;;;;;5067168;28;4903;-57
2023/07/21 05:25:32;;;;;;;;;;;;;;;;;;5065627;28;4976;-57
2023/07/21 05:27:57;;;;;;;;;;;;;;;;;;5067462;28;4668;-58
2023/07/21 05:30:24;;;;;;;;;;;;;;;;;;5065187;28;5079;-58
2023/07/21 05:32:49;;;;;;;;;;;;;;;;;;5067777;28;5041;-57
2023/07/21 05:35:14;;;;;;;;;;;;;;;;;;5068931;28;5070;-57
2023/07/21 05:37:40;;;;;;;;;;;;;;;;;;5067529;28;5441;-57
2023/07/21 05:40:07;;;;;;;;;;;;;;;;;;5067514;28;5145;-57
2023/07/21 05:42:32;;;;;;;;;;;;;;;;;;5067759;28;4967;-57
2023/07/21 05:44:57;;;;;;;;;;;;;;;;;;5067916;28;4931;-57
2023/07/21 05:47:22;;;;;;;;;;;;;;;;;;5069354;28;1441;-57
2023/07/21 05:49:48;;;;;;;;;;;;;;;;;;5063431;28;4975;-57
2023/07/21 05:52:13;;;;;;;;;;;;;;;;;;5071778;28;4408;-57
2023/07/21 05:54:39;;;;;;;;;;;;;;;;;;5070002;28;4660;-57
2023/07/21 05:57:05;;;;;;;;;;;;;;;;;;5071475;28;5025;-58
2023/07/21 05:59:33;;;;;;;;;;;;;;;;;;5070520;28;1914;-58
2023/07/21 06:01:59;;;;;;;;;;;;;;;;;;5070681;28;4677;-58
2023/07/21 06:04:24;;;;;;;;;;;;;;;;;;5071232;28;4882;-58
2023/07/21 06:06:50;;;;;;;;;;;;;;;;;;5071046;28;5059;-58
2023/07/21 06:09:15;;;;;;;;;;;;;;;;;;5071311;28;5087;-58
2023/07/21 06:11:41;;;;;;;;;;;;;;;;;;5071703;28;1111;-58
2023/07/21 06:14:07;;;;;;;;;;;;;;;;;;5068400;28;4999;-57
2023/07/21 06:16:32;;;;;;;;;;;;;;;;;;5069211;28;5103;-57
2023/07/21 06:18:59;;;;;;;;;;;;;;;;;;5069953;28;5095;-58
2023/07/21 06:21:24;;;;;;;;;;;;;;;;;;5070867;28;4438;-57
2023/07/21 06:23:50;;;;;;;;;;;;;;;;;;5068830;28;5053;-58
2023/07/21 06:26:16;;;;;;;;;;;;;;;;;;5067997;28;1426;-57
2023/07/21 06:28:41;;;;;;;;;;;;;;;;;;5070416;28;4435;-57
2023/07/21 06:31:06;;;;;;;;;;;;;;;;;;5070437;28;4828;-57
2023/07/21 06:33:31;;;;;;;;;;;;;;;;;;5068803;28;4923;-57
2023/07/21 06:35:57;;;;;;;;;;;;;;;;;;5070307;28;5273;-57
2023/07/21 06:38:22;;;;;;;;;;;;;;;;;;5070987;28;1123;-57
2023/07/21 06:40:47;;;;;;;;;;;;;;;;;;5066186;28;4984;-48
2023/07/21 06:43:13;;;;;;;;;;;;;;;;;;5067573;28;5101;-48
2023/07/21 06:45:39;;;;;;;;;;;;;;;;;;5062963;28;4491;-50
2023/07/21 06:48:06;;;;;;;;;;;;;;;;;;5066013;28;4459;-50
2023/07/21 06:50:31;;;;;;;;;;;;;;;;;;5064102;28;3144;-52
2023/07/21 06:52:56;;;;;;;;;;;;;;;;;;5059753;28;5974;-52
2023/07/21 06:55:22;;;;;;;;;;;;;;;;;;5065173;28;5158;-51
2023/07/21 06:57:47;;;;;;;;;;;;;;;;;;5067931;28;4936;-51
2023/07/21 07:00:14;;;;;;;;;;;;;;;;;;5065301;28;5085;-50
2023/07/21 07:02:39;;;;;;;;;;;;;;;;;;5068642;28;2566;-51
2023/07/21 07:05:05;;;;;;;;;;;;;;;;;;5067438;28;4839;-50
2023/07/21 07:07:30;;;;;;;;;;;;;;;;;;5066157;28;4980;-51
2023/07/21 07:09:55;;;;;;;;;;;;;;;;;;5068964;28;5016;-53
2023/07/21 07:12:21;;;;;;;;;;;;;;;;;;5070005;28;4862;-53
2023/07/21 07:14:46;;;;;;;;;;;;;;;;;;5068475;28;3123;-52
2023/07/21 07:17:12;;;;;;;;;;;;;;;;;;5069721;28;4601;-50
2023/07/21 07:19:38;;;;;;;;;;;;;;;;;;5067922;28;4611;-51
2023/07/21 07:22:05;;;;;;;;;;;;;;;;;;5065345;28;5596;-51
2023/07/21 07:24:30;;;;;;;;;;;;;;;;;;5057824;28;5119;-68
2023/07/21 07:26:55;;;;;;;;;;;;;;;;;;5068950;28;4980;-60
2023/07/21 07:29:21;;;;;;;;;;;;;;;;;;5069470;28;3172;-54
2023/07/21 07:31:46;;;;;;;;;;;;;;;;;;5075323;28;5137;-57
2023/07/21 07:34:12;;;;;;;;;;;;;;;;;;5057117;28;4454;-57
2023/07/21 07:36:37;;;;;;;;;;;;;;;;;;5049649;28;4906;-55
2023/07/21 07:39:03;;;;;;;;;;;;;;;;;;5048561;28;5096;-61
2023/07/21 07:41:28;;;;;;;;;;;;;;;;;;5039482;28;2722;-63
2023/07/21 07:43:53;;;;;;;;;;;;;;;;;;5049078;28;4425;-62
2023/07/21 07:46:18;;;;;;;;;;;;;;;;;;5057320;28;5114;-63
2023/07/21 07:48:47;;;;;;;;;;;;;;;;;;5069055;28;4925;-58
2023/07/21 07:51:13;;;;;;;;;;;;;;;;;;5069472;28;5004;-58
2023/07/21 07:53:38;;;;;;;;;;;;;;;;;;5069367;28;1147;-58
2023/07/21 07:56:04;;;;;;;;;;;;;;;;;;5068192;28;4582;-58
2023/07/21 07:58:29;;;;;;;;;;;;;;;;;;5068586;28;4679;-58
2023/07/21 08:00:58;;;;;;;;;;;;;;;;;;5067635;28;5056;-58
2023/07/21 08:03:24;;;;;;;;;;;;;;;;;;5069135;28;4938;-58
2023/07/21 08:05:50;;;;;;;;;;;;;;;;;;5068983;28;2195;-58
2023/07/21 08:08:16;;;;;;;;;;;;;;;;;;5069286;28;6019;-58
2023/07/21 08:10:41;;;;;;;;;;;;;;;;;;5059891;28;5050;-58
2023/07/21 08:13:06;;;;;;;;;;;;;;;;;;5063963;28;5218;-58
2023/07/21 08:15:32;;;;;;;;;;;;;;;;;;5064551;28;5420;-58
2023/07/21 08:17:57;;;;;;;;;;;;;;;;;;5067110;28;4483;-58
2023/07/21 08:20:23;;;;;;;;;;;;;;;;;;5064071;28;1954;-58
2023/07/21 08:22:48;;;;;;;;;;;;;;;;;;5067903;28;4841;-57
2023/07/21 08:25:14;;;;;;;;;;;;;;;;;;5066372;28;5038;-58
2023/07/21 08:27:40;;;;;;;;;;;;;;;;;;5065159;28;5253;-58
2023/07/21 08:30:08;;;;;;;;;;;;;;;;;;5068319;28;5092;-57
2023/07/21 08:32:33;;;;;;;;;;;;;;;;;;5068506;28;5071;-57
2023/07/21 08:34:58;;;;;;;;;;;;;;;;;;5064883;28;4438;-57
2023/07/21 08:37:23;;;;;;;;;;;;;;;;;;5067684;28;5087;-57
2023/07/21 08:39:49;;;;;;;;;;;;;;;;;;5065348;28;5155;-57
2023/07/21 08:42:14;;;;;;;;;;;;;;;;;;5064770;28;5098;-57
2023/07/21 08:44:39;;;;;;;;;;;;;;;;;;5068710;28;1814;-56
2023/07/21 08:47:05;;;;;;;;;;;;;;;;;;5067855;28;5009;-56
2023/07/21 08:49:30;;;;;;;;;;;;;;;;;;5065367;28;4609;-56
2023/07/21 08:51:55;;;;;;;;;;;;;;;;;;5067863;28;4843;-56
2023/07/21 08:54:21;;;;;;;;;;;;;;;;;;5066033;28;5037;-56
2023/07/21 08:56:46;;;;;;;;;;;;;;;;;;5066947;28;1258;-56
2023/07/21 08:59:11;;;;;;;;;;;;;;;;;;5067797;28;4928;-55
2023/07/21 09:01:37;;;;;;;;;;;;;;;;;;5067423;28;5020;-55
2023/07/21 09:04:02;;;;;;;;;;;;;;;;;;5067770;28;5025;-55
2023/07/21 09:06:27;;;;;;;;;;;;;;;;;;5066350;28;4919;-55
2023/07/21 09:08:53;;;;;;;;;;;;;;;;;;5066287;28;5063;-55
2023/07/21 09:11:18;;;;;;;;;;;;;;;;;;5068186;28;1120;-55
2023/07/21 09:13:50;;;;;;;;;;;;;;;;;;5067381;28;5049;-55
2023/07/21 09:16:15;;;;;;;;;;;;;;;;;;5065494;28;4937;-55
2023/07/21 09:18:41;;;;;;;;;;;;;;;;;;5065092;28;4441;-56
2023/07/21 09:21:07;;;;;;;;;;;;;;;;;;5061638;28;4899;-55
2023/07/21 09:23:32;;;;;;;;;;;;;;;;;;5067906;28;1198;-56
2023/07/21 09:25:58;;;;;;;;;;;;;;;;;;5065131;28;4969;-56
2023/07/21 09:28:42;;;;;;;;;;;;;;;;;;5065425;28;4947;-55
2023/07/21 09:31:07;;;;;;;;;;;;;;;;;;5067108;28;5182;-55
2023/07/21 09:33:39;;;;;;;;;;;;;;;;;;5066784;28;5039;-55
2023/07/21 09:36:07;;;;;;;;;;;;;;;;;;5066841;28;4981;-56
2023/07/21 09:38:33;;;;;;;;;;;;;;;;;;5067556;28;1147;-55
2023/07/21 09:41:02;;;;;;;;;;;;;;;;;;5066948;28;5255;-56
2023/07/21 09:43:28;;;;;;;;;;;;;;;;;;5066434;28;5075;-56
2023/07/21 09:45:54;;;;;;;;;;;;;;;;;;5067364;28;5072;-55
2023/07/21 09:48:19;;;;;;;;;;;;;;;;;;5065843;28;4648;-56
2023/07/21 09:50:44;;;;;;;;;;;;;;;;;;5058617;28;2164;-55
2023/07/21 09:53:10;;;;;;;;;;;;;;;;;;5066692;28;4973;-56
2023/07/21 09:55:36;;;;;;;;;;;;;;;;;;5064107;28;5026;-55
2023/07/21 09:58:01;;;;;;;;;;;;;;;;;;5066082;28;4439;-55
2023/07/21 10:00:28;;;;;;;;;;;;;;;;;;5065733;28;5704;-56
2023/07/21 10:02:53;;;;;;;;;;;;;;;;;;5065340;28;4865;-54
2023/07/21 10:05:19;;;;;;;;;;;;;;;;;;5067481;28;1096;-55
2023/07/21 10:07:48;;;;;;;;;;;;;;;;;;5066856;28;4882;-56
2023/07/21 10:10:13;;;;;;;;;;;;;;;;;;5066596;28;4962;-56
2023/07/21 10:12:42;;;;;;;;;;;;;;;;;;5065518;28;5047;-55
2023/07/21 10:15:19;;;;;;;;;;;;;;;;;;5066384;28;4957;-56
2023/07/21 10:17:55;;;;;;;;;;;;;;;;;;5067644;28;1242;-55
2023/07/21 10:20:21;;;;;;;;;;;;;;;;;;5062255;28;5074;-55
2023/07/21 10:22:55;;;;;;;;;;;;;;;;;;5066936;28;4625;-55
2023/07/21 10:25:22;;;;;;;;;;;;;;;;;;5065014;28;4874;-55
2023/07/21 10:28:00;;;;;;;;;;;;;;;;;;5066674;28;5028;-55
2023/07/21 10:30:26;;;;;;;;;;;;;;;;;;5066539;28;5105;-56
2023/07/21 10:32:52;;;;;;;;;;;;;;;;;;5067140;28;5004;-56
2023/07/21 10:35:39;;;;;;;;;;;;;;;;;;5070926;28;1147;-55
2023/07/21 10:38:30;;;;;;;;;;;;;;;;;;5069930;28;5163;-55
2023/07/21 10:40:56;;;;;;;;;;;;;;;;;;5061532;28;4517;-55
2023/07/21 10:43:21;;;;;;;;;;;;;;;;;;5070162;28;5091;-55
2023/07/21 10:45:50;;;;;;;;;;;;;;;;;;5070301;28;5094;-55
2023/07/21 10:48:16;;;;;;;;;;;;;;;;;;5068628;28;5118;-55
2023/07/21 10:50:42;;;;;;;;;;;;;;;;;;5070244;28;1701;-56
2023/07/21 10:53:07;;;;;;;;;;;;;;;;;;5068421;28;4627;-55
2023/07/21 10:55:36;;;;;;;;;;;;;;;;;;5069792;28;4877;-55
2023/07/21 10:58:01;;;;;;;;;;;;;;;;;;5068870;28;5022;-55
2023/07/21 11:00:26;;;;;;;;;;;;;;;;;;5070159;28;5082;-55
2023/07/21 11:02:55;;;;;;;;;;;;;;;;;;5070084;28;5032;-55
2023/07/21 11:05:22;;;;;;;;;;;;;;;;;;5068928;28;1136;-55
2023/07/21 11:07:48;;;;;;;;;;;;;;;;;;5070049;28;4809;-56
2023/07/21 11:10:13;;;;;;;;;;;;;;;;;;5067982;28;4997;-55
2023/07/21 11:12:38;;;;;;;;;;;;;;;;;;5069515;28;5096;-55
2023/07/21 11:15:04;;;;;;;;;;;;;;;;;;5066899;28;4873;-55
2023/07/21 11:17:32;;;;;;;;;;;;;;;;;;5070384;28;1171;-55
2023/07/21 11:20:05;;;;;;;;;;;;;;;;;;5065435;28;4488;-55
2023/07/21 11:22:30;;;;;;;;;;;;;;;;;;5069368;28;5028;-55
2023/07/21 11:25:11;;;;;;;;;;;;;;;;;;5066850;28;5257;-55
2023/07/21 11:27:46;;;;;;;;;;;;;;;;;;5070301;28;5065;-55
2023/07/21 11:30:16;;;;;;;;;;;;;;;;;;5065387;28;5113;-55
2023/07/21 11:32:42;;;;;;;;;;;;;;;;;;5069643;28;4989;-55
2023/07/21 11:35:07;;;;;;;;;;;;;;;;;;5065434;28;4653;-55
2023/07/21 11:37:36;;;;;;;;;;;;;;;;;;5069305;28;4975;-55
2023/07/21 11:40:04;;;;;;;;;;;;;;;;;;5050807;28;5623;-56
2023/07/21 11:42:40;;;;;;;;;;;;;;;;;;5069110;28;5062;-56
2023/07/21 11:45:28;;;;;;;;;;;;;;;;;;5068427;28;5071;-55
2023/07/21 11:47:53;;;;;;;;;;;;;;;;;;5064426;28;5076;-55
2023/07/21 11:50:18;;;;;;;;;;;;;;;;;;5064887;28;1389;-55
2023/07/21 11:52:46;;;;;;;;;;;;;;;;;;5069157;28;5172;-55
2023/07/21 11:55:11;;;;;;;;;;;;;;;;;;5067775;28;4430;-55
2023/07/21 11:57:36;;;;;;;;;;;;;;;;;;5069495;28;4833;-55
2023/07/21 12:00:11;;;;;;;;;;;;;;;;;;5068604;28;5015;-55
2023/07/21 12:02:36;;;;;;;;;;;;;;;;;;5062732;28;1202;-55
2023/07/21 12:05:02;;;;;;;;;;;;;;;;;;5068759;28;5040;-55
2023/07/21 12:07:27;;;;;;;;;;;;;;;;;;5068401;28;5106;-55
2023/07/21 12:09:54;;;;;;;;;;;;;;;;;;5068513;28;5091;-55
2023/07/21 12:12:19;;;;;;;;;;;;;;;;;;5068610;28;5013;-54
2023/07/21 12:14:45;;;;;;;;;;;;;;;;;;5068407;28;1099;-55
2023/07/21 12:17:10;;;;;;;;;;;;;;;;;;5068304;28;4437;-56
2023/07/21 12:19:35;;;;;;;;;;;;;;;;;;5055374;28;4507;-56
2023/07/21 12:22:00;;;;;;;;;;;;;;;;;;5061675;28;4505;-56
2023/07/21 12:24:26;;;;;;;;;;;;;;;;;;5064840;28;5113;-56
2023/07/21 12:26:51;;;;;;;;;;;;;;;;;;5063458;28;4965;-56
2023/07/21 12:29:16;;;;;;;;;;;;;;;;;;5066124;28;1222;-56
2023/07/21 12:31:42;;;;;;;;;;;;;;;;;;5064008;28;4962;-56
2023/07/21 12:34:07;;;;;;;;;;;;;;;;;;5064411;28;4970;-55
2023/07/21 12:36:32;;;;;;;;;;;;;;;;;;5066126;28;5160;-57
2023/07/21 12:38:58;;;;;;;;;;;;;;;;;;5066544;28;5147;-55
2023/07/21 12:41:23;;;;;;;;;;;;;;;;;;5068434;28;2061;-54
2023/07/21 12:43:48;;;;;;;;;;;;;;;;;;5067562;28;4433;-54
2023/07/21 12:46:14;;;;;;;;;;;;;;;;;;5065871;28;5109;-54
2023/07/21 12:48:40;;;;;;;;;;;;;;;;;;5065652;28;5005;-55
2023/07/21 12:51:06;;;;;;;;;;;;;;;;;;5063624;28;4450;-55
2023/07/21 12:53:31;;;;;;;;;;;;;;;;;;5068312;28;1080;-55
2023/07/21 12:55:56;;;;;;;;;;;;;;;;;;5067151;28;4839;-54
2023/07/21 12:58:21;;;;;;;;;;;;;;;;;;5065743;28;4467;-55
2023/07/21 13:00:47;;;;;;;;;;;;;;;;;;5067333;28;4664;-55
2023/07/21 13:03:12;;;;;;;;;;;;;;;;;;5064509;28;4897;-55
2023/07/21 13:05:37;;;;;;;;;;;;;;;;;;5063729;28;3290;-54
2023/07/21 13:08:03;;;;;;;;;;;;;;;;;;5065471;28;5173;-56
2023/07/21 13:10:28;;;;;;;;;;;;;;;;;;5060139;28;5135;-55
2023/07/21 13:12:53;;;;;;;;;;;;;;;;;;5061283;28;4474;-56
2023/07/21 13:15:19;;;;;;;;;;;;;;;;;;5066394;28;5052;-55
2023/07/21 13:17:44;;;;;;;;;;;;;;;;;;5064624;28;3202;-55
2023/07/21 13:20:13;;;;;;;;;;;;;;;;;;5064484;28;4554;-53
2023/07/21 13:22:38;;;;;;;;;;;;;;;;;;5058822;28;4987;-55
2023/07/21 13:25:04;;;;;;;;;;;;;;;;;;5057461;28;4902;-53
2023/07/21 13:27:29;;;;;;;;;;;;;;;;;;5061762;28;5038;-53
2023/07/21 13:29:54;;;;;;;;;;;;;;;;;;5064186;28;5148;-53
2023/07/21 13:32:20;;;;;;;;;;;;;;;;;;5062307;28;5026;-54
2023/07/21 13:34:45;;;;;;;;;;;;;;;;;;5061567;28;5070;-54
2023/07/21 13:37:10;;;;;;;;;;;;;;;;;;5060624;28;4514;-54
2023/07/21 13:39:35;;;;;;;;;;;;;;;;;;5060865;28;4901;-57
2023/07/21 13:42:00;;;;;;;;;;;;;;;;;;5065899;28;4405;-56
2023/07/21 13:44:27;;;;;;;;;;;;;;;;;;5062189;28;3297;-55
2023/07/21 13:46:52;;;;;;;;;;;;;;;;;;5064214;28;5013;-57
2023/07/21 13:49:19;;;;;;;;;;;;;;;;;;5060183;28;5170;-56
2023/07/21 13:51:45;;;;;;;;;;;;;;;;;;5057183;28;5036;-47
2023/07/21 13:54:10;;;;;;;;;;;;;;;;;;5058377;28;4932;-48
2023/07/21 13:56:35;;;;;;;;;;;;;;;;;;5059929;28;3503;-47
2023/07/21 13:59:00;;;;;;;;;;;;;;;;;;5063171;28;5010;-50
2023/07/21 14:01:26;;;;;;;;;;;;;;;;;;5057411;28;5040;-47
2023/07/21 14:03:52;;;;;;;;;;;;;;;;;;5060270;28;4688;-49
2023/07/21 14:06:18;;;;;;;;;;;;;;;;;;5058822;28;5119;-48
2023/07/21 14:08:43;;;;;;;;;;;;;;;;;;5062125;28;3595;-46
2023/07/21 14:11:08;;;;;;;;;;;;;;;;;;5062271;28;5099;-46
2023/07/21 14:13:34;;;;;;;;;;;;;;;;;;5059352;28;5118;-48
2023/07/21 14:15:59;;;;;;;;;;;;;;;;;;5067491;28;5071;-46
2023/07/21 14:18:24;;;;;;;;;;;;;;;;;;5067402;28;4674;-48
2023/07/21 14:20:50;;;;;;;;;;;;;;;;;;5064851;28;5147;-46
2023/07/21 14:23:15;;;;;;;;;;;;;;;;;;5064283;28;3268;-47
2023/07/21 14:25:40;;;;;;;;;;;;;;;;;;5063218;28;5324;-48
2023/07/21 14:28:05;;;;;;;;;;;;;;;;;;5067638;28;4959;-47
2023/07/21 14:30:31;;;;;;;;;;;;;;;;;;5068272;28;4477;-47
2023/07/21 14:32:56;;;;;;;;;;;;;;;;;;5069056;28;5083;-48
2023/07/21 14:35:23;;;;;;;;;;;;;;;;;;5071296;28;1151;-48
2023/07/21 14:37:48;;;;;;;;;;;;;;;;;;5064741;28;4464;-47
2023/07/21 14:40:15;;;;;;;;;;;;;;;;;;5070975;28;4421;-49
2023/07/21 14:42:40;;;;;;;;;;;;;;;;;;5070474;28;5090;-47
2023/07/21 14:45:07;;;;;;;;;;;;;;;;;;5065823;28;4852;-45
2023/07/21 14:47:32;;;;;;;;;;;;;;;;;;5068058;28;1134;-47
2023/07/21 14:49:57;;;;;;;;;;;;;;;;;;5066305;28;5055;-47
2023/07/21 14:52:23;;;;;;;;;;;;;;;;;;5068664;28;5020;-46
2023/07/21 14:54:48;;;;;;;;;;;;;;;;;;5069069;28;4950;-46
2023/07/21 14:57:13;;;;;;;;;;;;;;;;;;5065006;28;5151;-45
2023/07/21 14:59:39;;;;;;;;;;;;;;;;;;5061568;28;3520;-46
2023/07/21 15:02:04;;;;;;;;;;;;;;;;;;5065486;28;4546;-49
2023/07/21 15:04:29;;;;;;;;;;;;;;;;;;5064143;28;4920;-47
2023/07/21 15:06:55;;;;;;;;;;;;;;;;;;5060787;28;5096;-48
2023/07/21 15:09:20;;;;;;;;;;;;;;;;;;5069955;28;4968;-47
2023/07/21 15:11:46;;;;;;;;;;;;;;;;;;5068584;28;2485;-47
2023/07/21 15:14:11;;;;;;;;;;;;;;;;;;5068436;28;5007;-49
2023/07/21 15:16:36;;;;;;;;;;;;;;;;;;5066486;28;5023;-48
2023/07/21 15:19:02;;;;;;;;;;;;;;;;;;5063708;28;5045;-52
2023/07/21 15:21:28;;;;;;;;;;;;;;;;;;5071081;28;5060;-49
2023/07/21 15:23:54;;;;;;;;;;;;;;;;;;5062599;28;5005;-46
2023/07/21 15:26:19;;;;;;;;;;;;;;;;;;5062188;28;3215;-46
2023/07/21 15:28:44;;;;;;;;;;;;;;;;;;5056950;28;5155;-48
2023/07/21 15:31:10;;;;;;;;;;;;;;;;;;5057612;28;5065;-47
2023/07/21 15:33:35;;;;;;;;;;;;;;;;;;5059391;28;4859;-46
2023/07/21 15:36:01;;;;;;;;;;;;;;;;;;5068744;28;4970;-50
2023/07/21 15:38:26;;;;;;;;;;;;;;;;;;5066202;28;3194;-46
2023/07/21 15:40:51;;;;;;;;;;;;;;;;;;5068344;28;4971;-48
2023/07/21 15:43:17;;;;;;;;;;;;;;;;;;5063108;28;5040;-46
2023/07/21 15:45:42;;;;;;;;;;;;;;;;;;5066405;28;5082;-50
2023/07/21 15:48:08;;;;;;;;;;;;;;;;;;5068245;28;5124;-49
2023/07/21 15:50:33;;;;;;;;;;;;;;;;;;5065664;28;1418;-49
2023/07/21 15:52:58;;;;;;;;;;;;;;;;;;5069083;28;5458;-47
2023/07/21 15:55:24;;;;;;;;;;;;;;;;;;5068652;28;5082;-47
2023/07/21 15:57:49;;;;;;;;;;;;;;;;;;5067064;28;4748;-50
2023/07/21 16:00:14;;;;;;;;;;;;;;;;;;5068155;28;5230;-47
2023/07/21 16:02:40;;;;;;;;;;;;;;;;;;5069149;28;1257;-50
2023/07/21 16:05:06;;;;;;;;;;;;;;;;;;5069183;28;4968;-50
2023/07/21 16:07:31;;;;;;;;;;;;;;;;;;5068592;28;5343;-50
2023/07/21 16:09:57;;;;;;;;;;;;;;;;;;5068487;28;4855;-47
2023/07/21 16:12:22;;;;;;;;;;;;;;;;;;5067877;28;5008;-49
2023/07/21 16:14:47;;;;;;;;;;;;;;;;;;5067767;28;1137;-49
2023/07/21 16:17:12;;;;;;;;;;;;;;;;;;5067125;28;5200;-46
2023/07/21 16:19:38;;;;;;;;;;;;;;;;;;5066569;28;5452;-46
2023/07/21 16:22:03;;;;;;;;;;;;;;;;;;5068672;28;4518;-46
2023/07/21 16:24:28;;;;;;;;;;;;;;;;;;5065094;28;5114;-47
2023/07/21 16:26:53;;;;;;;;;;;;;;;;;;5067665;28;5095;-49
2023/07/21 16:29:19;;;;;;;;;;;;;;;;;;5065964;28;1347;-47
2023/07/21 16:31:44;;;;;;;;;;;;;;;;;;5067602;28;5078;-48
2023/07/21 16:34:09;;;;;;;;;;;;;;;;;;5064796;28;5032;-50
2023/07/21 16:36:35;;;;;;;;;;;;;;;;;;5068266;28;5045;-49
2023/07/21 16:39:00;;;;;;;;;;;;;;;;;;5067824;28;4957;-46
2023/07/21 16:41:25;;;;;;;;;;;;;;;;;;5068514;28;1909;-46
2023/07/21 16:43:50;;;;;;;;;;;;;;;;;;5065992;28;5000;-50
2023/07/21 16:46:16;;;;;;;;;;;;;;;;;;5066685;28;5025;-47
2023/07/21 16:48:41;;;;;;;;;;;;;;;;;;5067979;28;4586;-48
2023/07/21 16:51:07;;;;;;;;;;;;;;;;;;5063285;28;5062;-51
2023/07/21 16:53:32;;;;;;;;;;;;;;;;;;5068604;28;1189;-46